createdAt,value
2022-11-05T00:00:35.922Z,101012.81
2022-11-05T00:05:55.939Z,101011.97
2022-11-05T00:10:57.378Z,101014.56
2022-11-05T00:16:17.498Z,101016.38
2022-11-05T00:21:37.677Z,101027.59
2022-11-05T00:26:39.144Z,101030.25
2022-11-05T00:31:40.576Z,101027.63
2022-11-05T00:36:42.008Z,101027.63
2022-11-05T00:41:43.524Z,101027.66
2022-11-05T00:46:44.993Z,101026.84
2022-11-05T00:51:46.413Z,101039.78
2022-11-05T00:56:47.946Z,101029.47
2022-11-05T01:01:49.440Z,101027.78
2022-11-05T01:06:50.914Z,101031.22
2022-11-05T01:11:52.394Z,101032.97
2022-11-05T01:16:54.397Z,101048.50
2022-11-05T01:21:55.890Z,101058.84
2022-11-05T01:26:57.477Z,101053.69
2022-11-05T01:31:58.974Z,101053.69
2022-11-05T01:37:00.425Z,101058.88
2022-11-05T01:42:01.999Z,101059.69
2022-11-05T01:47:03.474Z,101052.81
2022-11-05T01:52:05.048Z,101053.66
2022-11-05T01:57:09.916Z,101057.13
2022-11-05T02:02:11.774Z,101061.41
2022-11-05T02:07:14.153Z,101057.13
2022-11-05T02:12:15.745Z,101054.53
2022-11-05T02:17:40.498Z,101055.41
2022-11-05T02:23:19.533Z,101056.22
2022-11-05T02:28:39.524Z,101046.78
2022-11-05T02:34:20.426Z,101058.84
2022-11-05T02:39:40.173Z,101053.63
2022-11-05T02:44:44.773Z,101051.91
2022-11-05T02:49:56.080Z,101057.97
2022-11-05T02:55:20.021Z,101064.88
2022-11-05T03:00:48.952Z,101052.72
2022-11-05T03:06:11.660Z,101058.72
2022-11-05T03:11:19.797Z,101055.31
2022-11-05T03:16:41.961Z,101054.44
2022-11-05T03:21:53.283Z,101060.47
2022-11-05T03:27:02.501Z,101074.22
2022-11-05T03:32:05.712Z,101076.75
2022-11-05T03:37:09.241Z,101077.66
2022-11-05T03:42:14.625Z,101081.09
2022-11-05T03:47:21.933Z,101083.69
2022-11-05T03:52:29.288Z,101083.63
2022-11-05T03:57:34.588Z,101082.81
2022-11-05T04:02:37.572Z,101084.53
2022-11-05T04:07:57.664Z,101086.25
2022-11-05T04:13:17.801Z,101091.44
2022-11-05T04:18:19.549Z,101099.13
2022-11-05T04:23:39.543Z,101108.69
2022-11-05T04:29:02.569Z,101121.59
2022-11-05T04:34:08.243Z,101109.50
2022-11-05T04:39:09.705Z,101120.78
2022-11-05T04:44:11.178Z,101115.59
2022-11-05T04:49:12.661Z,101119.88
2022-11-05T04:54:14.115Z,101114.72
2022-11-05T04:59:15.597Z,101120.69
2022-11-05T05:04:17.068Z,101118.94
2022-11-05T05:09:18.552Z,101125.72
2022-11-05T05:14:19.998Z,101127.41
2022-11-05T05:19:21.392Z,101122.97
2022-11-05T05:24:24.889Z,101125.66
2022-11-05T05:29:26.330Z,101121.34
2022-11-05T05:34:27.809Z,101130.88
2022-11-05T05:39:29.233Z,101136.09
2022-11-05T05:44:30.647Z,101143.88
2022-11-05T05:49:32.360Z,101137.88
2022-11-05T05:54:38.315Z,101143.16
2022-11-05T05:59:42.850Z,101145.78
2022-11-05T06:04:44.292Z,101147.47
2022-11-05T06:09:45.787Z,101151.75
2022-11-05T06:14:47.696Z,101154.34
2022-11-05T06:19:49.162Z,101162.13
2022-11-05T06:24:50.579Z,101159.53
2022-11-05T06:29:51.995Z,101161.22
2022-11-05T06:34:53.502Z,101165.56
2022-11-05T06:39:57.033Z,101175.94
2022-11-05T06:44:58.535Z,101180.25
2022-11-05T06:50:00.012Z,101183.72
2022-11-05T06:55:01.496Z,101186.25
2022-11-05T07:00:07.621Z,101184.56
2022-11-05T07:05:12.794Z,101200.06
2022-11-05T07:10:15.648Z,101197.50
2022-11-05T07:15:17.221Z,101194.00
2022-11-05T07:20:18.698Z,101200.88
2022-11-05T07:25:20.329Z,101222.47
2022-11-05T07:30:21.832Z,101215.59
2022-11-05T07:35:23.742Z,101215.50
2022-11-05T07:40:27.581Z,101218.06
2022-11-05T07:45:30.956Z,101219.81
2022-11-05T07:50:35.396Z,101224.97
2022-11-05T07:55:37.678Z,101228.38
2022-11-05T08:00:39.858Z,101232.72
2022-11-05T08:05:44.554Z,101235.22
2022-11-05T08:10:47.217Z,101227.31
2022-11-05T08:15:48.757Z,101233.25
2022-11-05T08:20:50.203Z,101240.06
2022-11-05T08:25:51.675Z,101240.81
2022-11-05T08:30:55.823Z,101234.50
2022-11-05T08:36:01.852Z,101239.41
2022-11-05T08:41:03.369Z,101240.84
2022-11-05T08:46:04.889Z,101244.88
2022-11-05T08:51:06.299Z,101242.47
2022-11-05T08:56:08.186Z,101242.19
2022-11-05T09:01:09.744Z,101240.53
2022-11-05T09:06:11.233Z,101260.44
2022-11-05T09:11:12.844Z,101256.41
2022-11-05T09:16:20.412Z,101259.31
2022-11-05T09:21:21.920Z,101265.72
2022-11-05T09:26:24.455Z,101257.50
2022-11-05T09:31:25.957Z,101264.44
2022-11-05T09:36:27.401Z,101266.00
2022-11-05T09:41:36.788Z,101274.69
2022-11-05T09:46:47.246Z,101276.81
2022-11-05T09:51:48.977Z,101269.56
2022-11-05T09:56:52.942Z,101279.28
2022-11-05T10:02:04.018Z,101294.34
2022-11-05T10:07:10.505Z,101284.63
2022-11-05T10:12:37.218Z,101288.75
2022-11-05T10:17:42.355Z,101297.09
2022-11-05T10:22:49.166Z,101282.88
2022-11-05T10:27:54.517Z,101279.66
2022-11-05T10:33:00.509Z,101287.34
2022-11-05T10:38:02.228Z,101289.06
2022-11-05T10:43:05.754Z,101284.19
2022-11-05T10:48:27.380Z,101287.44
2022-11-05T10:53:38.916Z,101289.56
2022-11-05T10:58:55.240Z,101296.84
2022-11-05T11:04:17.596Z,101288.22
2022-11-05T11:09:26.287Z,101292.03
2022-11-05T11:14:28.095Z,101279.75
2022-11-05T11:19:32.677Z,101289.97
2022-11-05T11:24:39.846Z,101298.34
2022-11-05T11:29:49.169Z,101309.97
2022-11-05T11:34:53.877Z,101304.88
2022-11-05T11:40:04.031Z,101306.28
2022-11-05T11:45:25.555Z,101302.16
2022-11-05T11:50:44.300Z,101294.97
2022-11-05T11:56:11.801Z,101299.50
2022-11-05T12:01:35.344Z,101304.38
2022-11-05T12:06:36.718Z,101286.72
2022-11-05T12:11:54.939Z,101271.94
2022-11-05T12:17:07.230Z,101280.25
2022-11-05T12:22:36.510Z,101282.09
2022-11-05T12:27:49.899Z,101291.03
2022-11-05T12:33:00.248Z,101293.44
2022-11-05T12:38:29.571Z,101291.22
2022-11-05T12:43:31.973Z,101304.34
2022-11-05T12:48:48.447Z,101300.06
2022-11-05T12:54:05.494Z,101297.53
2022-11-05T12:59:39.925Z,101288.41
2022-11-05T13:04:50.820Z,101298.81
2022-11-05T13:09:57.928Z,101313.06
2022-11-05T13:15:10.575Z,101300.28
2022-11-05T13:20:19.059Z,101304.81
2022-11-05T13:25:27.841Z,101301.16
2022-11-05T13:30:41.473Z,101291.41
2022-11-05T13:36:20.937Z,101292.75
2022-11-05T13:41:34.621Z,101308.75
2022-11-05T13:46:41.836Z,101302.94
2022-11-05T13:51:53.314Z,101316.19
2022-11-05T13:57:12.107Z,101319.34
2022-11-05T14:02:28.639Z,101320.78
2022-11-05T14:07:45.184Z,101305.34
2022-11-05T14:12:50.863Z,101297.66
2022-11-05T14:18:31.101Z,101288.84
2022-11-05T14:23:49.085Z,101290.44
2022-11-05T14:29:11.780Z,101295.47
2022-11-05T14:34:13.179Z,101296.06
2022-11-05T14:39:20.470Z,101310.44
2022-11-05T14:44:23.588Z,101310.34
2022-11-05T14:49:29.293Z,101325.44
2022-11-05T14:54:41.369Z,101320.13
2022-11-05T14:59:48.581Z,101326.97
2022-11-05T15:04:52.680Z,101324.66
2022-11-05T15:09:54.088Z,101317.91
2022-11-05T15:15:02.084Z,101327.00
2022-11-05T15:20:06.583Z,101318.75
2022-11-05T15:25:28.573Z,101334.69
2022-11-05T15:30:30.148Z,101339.22
2022-11-05T15:35:37.840Z,101336.78
2022-11-05T15:40:39.296Z,101334.91
2022-11-05T15:45:40.742Z,101331.78
2022-11-05T15:50:42.444Z,101324.88
2022-11-05T15:55:54.969Z,101326.66
2022-11-05T16:00:56.474Z,101335.47
2022-11-05T16:06:00.246Z,101334.81
2022-11-05T16:11:01.770Z,101337.31
2022-11-05T16:16:14.699Z,101333.91
2022-11-05T16:21:18.961Z,101346.59
2022-11-05T16:26:55.853Z,101352.41
2022-11-05T16:31:53.835Z,101341.88
2022-11-05T16:36:59.551Z,101345.66
2022-11-05T16:42:01.006Z,101344.81
2022-11-05T16:47:02.475Z,101337.97
2022-11-05T16:52:08.802Z,101344.09
2022-11-05T16:57:28.784Z,101336.16
2022-11-05T17:02:30.456Z,101338.66
2022-11-05T17:07:34.735Z,101327.44
2022-11-05T17:12:38.655Z,101338.06
2022-11-05T17:17:40.100Z,101337.16
2022-11-05T17:22:41.553Z,101327.56
2022-11-05T17:27:43.207Z,101331.88
2022-11-05T17:32:44.978Z,101345.94
2022-11-05T17:37:46.865Z,101349.44
2022-11-05T17:42:49.278Z,101353.09
2022-11-05T17:47:50.755Z,101366.00
2022-11-05T17:52:52.237Z,101357.34
2022-11-05T17:57:53.728Z,101362.91
2022-11-05T18:02:55.450Z,101359.38
2022-11-05T18:07:57.382Z,101347.81
2022-11-05T18:12:58.973Z,101356.72
2022-11-05T18:18:00.452Z,101352.09
2022-11-05T18:23:02.112Z,101348.97
2022-11-05T18:28:03.902Z,101348.94
2022-11-05T18:33:05.582Z,101348.00
2022-11-05T18:38:07.102Z,101344.56
2022-11-05T18:43:08.672Z,101332.19
2022-11-05T18:48:11.106Z,101335.75
2022-11-05T18:53:12.872Z,101344.56
2022-11-05T18:58:14.655Z,101343.78
2022-11-05T19:03:16.193Z,101344.53
2022-11-05T19:08:17.672Z,101341.25
2022-11-05T19:13:19.120Z,101342.97
2022-11-05T19:18:20.659Z,101339.47
2022-11-05T19:23:22.213Z,101344.88
2022-11-05T19:28:23.786Z,101339.66
2022-11-05T19:33:25.642Z,101326.66
2022-11-05T19:38:27.193Z,101327.53
2022-11-05T19:43:29.047Z,101331.09
2022-11-05T19:48:31.402Z,101332.78
2022-11-05T19:53:35.033Z,101339.72
2022-11-05T19:58:36.618Z,101332.69
2022-11-05T20:03:39.006Z,101334.50
2022-11-05T20:08:59.802Z,101335.22
2022-11-05T20:14:03.319Z,101324.88
2022-11-05T20:19:07.447Z,101326.75
2022-11-05T20:24:11.675Z,101325.00
2022-11-05T20:29:13.247Z,101318.00
2022-11-05T20:34:14.717Z,101337.06
2022-11-05T20:39:17.638Z,101327.63
2022-11-05T20:44:19.644Z,101349.38
2022-11-05T20:49:25.132Z,101350.31
2022-11-05T20:54:27.321Z,101343.41
2022-11-05T20:59:28.764Z,101353.03
2022-11-05T21:04:30.622Z,101341.78
2022-11-05T21:09:32.072Z,101346.19
2022-11-05T21:14:33.523Z,101356.59
2022-11-05T21:19:35.664Z,101344.41
2022-11-05T21:24:37.170Z,101347.06
2022-11-05T21:29:38.651Z,101349.41
2022-11-05T21:34:40.146Z,101336.66
2022-11-05T21:39:41.589Z,101333.88
2022-11-05T21:44:43.140Z,101340.03
2022-11-05T21:49:44.695Z,101331.31
2022-11-05T21:55:05.088Z,101329.50
2022-11-05T22:00:09.626Z,101320.00
2022-11-05T22:05:11.202Z,101311.34
2022-11-05T22:10:16.105Z,101308.81
2022-11-05T22:15:18.028Z,101316.59
2022-11-05T22:20:19.976Z,101308.91
2022-11-05T22:25:21.752Z,101295.00
2022-11-05T22:30:23.210Z,101305.38
2022-11-05T22:35:24.667Z,101293.31
2022-11-05T22:40:26.127Z,101292.41
2022-11-05T22:45:27.570Z,101280.44
2022-11-05T22:50:29.070Z,101283.81
2022-11-05T22:55:30.555Z,101252.81
2022-11-05T23:00:37.353Z,101265.66
2022-11-05T23:05:38.810Z,101268.13
2022-11-05T23:10:58.946Z,101264.78
2022-11-05T23:16:18.991Z,101262.94
2022-11-05T23:21:39.128Z,101256.66
2022-11-05T23:26:52.886Z,101248.13
2022-11-05T23:32:12.767Z,101247.28
2022-11-05T23:37:32.757Z,101248.09
2022-11-05T23:42:53.310Z,101242.94
2022-11-05T23:48:30.215Z,101232.59
2022-11-05T23:53:34.128Z,101228.19
2022-11-05T23:58:37.107Z,101220.44
